createdAt,value
2022-10-12T00:01:35.236Z,5.43
2022-10-12T00:04:01.587Z,5.50
2022-10-12T00:06:27.944Z,8.32
2022-10-12T00:08:54.717Z,6.63
2022-10-12T00:11:24.257Z,5.03
2022-10-12T00:13:50.736Z,7.68
2022-10-12T00:16:19.470Z,6.10
2022-10-12T00:18:50.146Z,6.15
2022-10-12T00:21:17.276Z,6.50
2022-10-12T00:23:44.485Z,4.97
2022-10-12T00:26:15.096Z,5.22
2022-10-12T00:28:41.469Z,3.17
2022-10-12T00:31:10.219Z,4.35
2022-10-12T00:33:38.509Z,4.70
2022-10-12T00:36:14.882Z,3.72
2022-10-12T00:38:41.326Z,5.82
2022-10-12T00:41:07.826Z,5.60
2022-10-12T00:43:38.973Z,2.80
2022-10-12T00:46:36.497Z,7.10
2022-10-12T00:49:14.678Z,7.50
2022-10-12T00:51:42.073Z,6.38
2022-10-12T00:54:13.403Z,8.02
2022-10-12T00:56:42.382Z,5.75
2022-10-12T00:59:12.447Z,6.90
2022-10-12T01:01:39.222Z,6.65
2022-10-12T01:04:06.246Z,5.05
2022-10-12T01:06:33.896Z,5.55
2022-10-12T01:09:00.825Z,5.80
2022-10-12T01:11:27.170Z,3.80
2022-10-12T01:13:53.457Z,3.50
2022-10-12T01:16:24.870Z,5.88
2022-10-12T01:19:18.548Z,5.55
2022-10-12T01:21:51.413Z,8.07
2022-10-12T01:24:35.769Z,5.18
2022-10-12T01:27:41.904Z,2.13
2022-10-12T01:30:17.532Z,3.35
2022-10-12T01:32:58.918Z,4.07
2022-10-12T01:35:33.993Z,3.25
2022-10-12T01:38:05.565Z,2.00
2022-10-12T01:40:58.841Z,3.42
2022-10-12T01:43:36.687Z,6.53
2022-10-12T01:46:06.518Z,4.38
2022-10-12T01:48:32.832Z,3.33
2022-10-12T01:51:02.305Z,6.65
2022-10-12T01:53:57.221Z,6.13
2022-10-12T01:56:42.399Z,3.88
2022-10-12T01:59:17.440Z,4.93
2022-10-12T02:02:17.608Z,4.25
2022-10-12T02:04:50.038Z,6.95
2022-10-12T02:07:27.607Z,2.70
2022-10-12T02:09:55.793Z,4.90
2022-10-12T02:12:23.763Z,3.42
2022-10-12T02:14:53.412Z,3.85
2022-10-12T02:17:21.655Z,3.80
2022-10-12T02:19:52.795Z,4.18
2022-10-12T02:22:19.406Z,3.97
2022-10-12T02:24:47.673Z,9.80
2022-10-12T02:27:14.882Z,4.90
2022-10-12T02:29:43.231Z,4.15
2022-10-12T02:32:44.400Z,2.92
2022-10-12T02:35:28.333Z,8.82
2022-10-12T02:38:13.586Z,4.68
2022-10-12T02:40:56.317Z,3.03
2022-10-12T02:43:33.578Z,3.95
2022-10-12T02:46:00.310Z,4.47
2022-10-12T02:48:28.478Z,2.95
2022-10-12T02:50:56.737Z,2.28
2022-10-12T02:53:24.383Z,3.38
2022-10-12T02:55:59.010Z,4.95
2022-10-12T02:58:25.845Z,5.07
2022-10-12T03:00:52.228Z,11.95
2022-10-12T03:03:18.607Z,6.45
2022-10-12T03:05:45.826Z,5.78
2022-10-12T03:08:12.158Z,8.70
2022-10-12T03:10:38.483Z,5.15
2022-10-12T03:13:04.782Z,6.55
2022-10-12T03:15:31.344Z,4.88
2022-10-12T03:17:57.706Z,4.07
2022-10-12T03:20:24.074Z,2.70
2022-10-12T03:22:50.436Z,4.47
2022-10-12T03:25:16.837Z,5.25
2022-10-12T03:27:43.219Z,3.95
2022-10-12T03:30:11.353Z,5.72
2022-10-12T03:32:39.041Z,3.60
2022-10-12T03:35:05.886Z,4.28
2022-10-12T03:37:32.394Z,5.72
2022-10-12T03:39:58.735Z,5.25
2022-10-12T03:42:25.098Z,7.80
2022-10-12T03:44:51.511Z,2.85
2022-10-12T03:47:17.856Z,3.55
2022-10-12T03:49:44.175Z,4.85
2022-10-12T03:52:10.535Z,5.45
2022-10-12T03:54:37.052Z,3.05
2022-10-12T03:57:03.422Z,3.80
2022-10-12T03:59:29.726Z,3.28
2022-10-12T04:01:56.160Z,5.53
2022-10-12T04:04:22.603Z,3.45
2022-10-12T04:06:48.942Z,4.45
2022-10-12T04:09:15.263Z,4.97
2022-10-12T04:11:41.607Z,5.38
2022-10-12T04:14:07.973Z,6.60
2022-10-12T04:16:34.316Z,4.78
2022-10-12T04:19:00.679Z,4.25
2022-10-12T04:21:28.867Z,4.47
2022-10-12T04:23:55.242Z,4.25
2022-10-12T04:26:21.868Z,5.60
2022-10-12T04:28:48.213Z,3.78
2022-10-12T04:31:14.545Z,5.50
2022-10-12T04:33:40.873Z,5.85
2022-10-12T04:36:07.604Z,4.50
2022-10-12T04:38:33.968Z,5.35
2022-10-12T04:41:00.275Z,2.88
2022-10-12T04:43:26.619Z,3.58
2022-10-12T04:45:57.389Z,3.38
2022-10-12T04:48:24.182Z,5.22
2022-10-12T04:50:50.542Z,5.38
2022-10-12T04:53:16.912Z,5.22
2022-10-12T04:55:43.347Z,4.53
2022-10-12T04:58:09.747Z,4.18
2022-10-12T05:00:36.095Z,5.28
2022-10-12T05:03:02.399Z,5.82
2022-10-12T05:05:28.711Z,6.38
2022-10-12T05:07:55.058Z,3.47
2022-10-12T05:10:21.555Z,5.47
2022-10-12T05:12:47.867Z,5.70
2022-10-12T05:15:14.211Z,4.38
2022-10-12T05:17:40.734Z,6.53
2022-10-12T05:20:08.275Z,3.30
2022-10-12T05:22:34.623Z,4.55
2022-10-12T05:25:01.171Z,4.72
2022-10-12T05:27:27.515Z,8.05
2022-10-12T05:29:53.860Z,6.53
2022-10-12T05:32:20.191Z,3.88
2022-10-12T05:34:46.579Z,3.10
2022-10-12T05:37:12.914Z,4.20
2022-10-12T05:39:39.252Z,4.72
2022-10-12T05:42:06.200Z,6.55
2022-10-12T05:44:32.530Z,4.57
2022-10-12T05:46:58.894Z,4.30
2022-10-12T05:49:25.248Z,7.47
2022-10-12T05:51:51.606Z,4.15
2022-10-12T05:54:17.918Z,9.63
2022-10-12T05:56:44.231Z,5.78
2022-10-12T05:59:11.086Z,7.47
2022-10-12T06:01:37.690Z,6.43
2022-10-12T06:04:04.086Z,5.30
2022-10-12T06:06:30.417Z,6.13
2022-10-12T06:08:56.740Z,4.60
2022-10-12T06:11:23.157Z,4.15
2022-10-12T06:13:49.485Z,7.40
2022-10-12T06:16:15.857Z,6.38
2022-10-12T06:18:42.223Z,5.43
2022-10-12T06:21:28.812Z,3.47
2022-10-12T06:23:54.857Z,9.88
2022-10-12T06:26:21.173Z,4.50
2022-10-12T06:28:47.620Z,6.63
2022-10-12T06:31:14.870Z,6.68
2022-10-12T06:33:41.191Z,4.00
2022-10-12T06:36:07.644Z,5.40
2022-10-12T06:38:33.978Z,4.90
2022-10-12T06:41:00.291Z,6.85
2022-10-12T06:43:26.587Z,5.18
2022-10-12T06:45:52.914Z,4.63
2022-10-12T06:48:19.368Z,4.68
2022-10-12T06:50:46.678Z,9.68
2022-10-12T06:53:12.998Z,5.05
2022-10-12T06:55:40.341Z,10.15
2022-10-12T06:58:06.683Z,6.78
2022-10-12T07:00:33.255Z,8.95
2022-10-12T07:02:59.603Z,7.20
2022-10-12T07:05:25.964Z,8.27
2022-10-12T07:07:52.282Z,8.88
2022-10-12T07:10:18.684Z,11.13
2022-10-12T07:12:45.002Z,10.88
2022-10-12T07:15:11.573Z,5.97
2022-10-12T07:17:38.368Z,6.38
2022-10-12T07:20:05.560Z,5.75
2022-10-12T07:22:32.566Z,8.45
2022-10-12T07:24:59.076Z,5.90
2022-10-12T07:27:25.390Z,7.22
2022-10-12T07:29:51.870Z,8.25
2022-10-12T07:32:18.214Z,11.00
2022-10-12T07:34:45.051Z,7.53
2022-10-12T07:37:11.592Z,10.23
2022-10-12T07:39:38.007Z,11.52
2022-10-12T07:42:04.371Z,8.85
2022-10-12T07:44:31.519Z,8.38
2022-10-12T07:46:58.305Z,7.40
2022-10-12T07:49:24.641Z,9.82
2022-10-12T07:51:50.950Z,13.57
2022-10-12T07:54:21.060Z,8.88
2022-10-12T07:56:49.469Z,10.18
2022-10-12T07:59:15.867Z,7.75
2022-10-12T08:01:42.238Z,10.73
2022-10-12T08:04:09.389Z,10.55
2022-10-12T08:06:35.890Z,9.90
2022-10-12T08:09:02.751Z,10.02
2022-10-12T08:11:29.643Z,8.88
2022-10-12T08:13:56.300Z,13.10
2022-10-12T08:16:22.681Z,9.85
2022-10-12T08:18:49.145Z,10.55
2022-10-12T08:21:16.467Z,6.97
2022-10-12T08:23:46.804Z,10.98
2022-10-12T08:26:14.576Z,8.25
2022-10-12T08:28:41.126Z,8.23
2022-10-12T08:31:09.008Z,9.30
2022-10-12T08:33:35.421Z,8.25
2022-10-12T08:36:03.614Z,7.03
2022-10-12T08:38:31.182Z,14.23
2022-10-12T08:41:05.072Z,9.45
2022-10-12T08:43:37.105Z,7.90
2022-10-12T08:46:04.329Z,6.22
2022-10-12T08:48:35.265Z,12.98
2022-10-12T08:51:11.575Z,8.40
2022-10-12T08:53:48.608Z,6.90
2022-10-12T08:56:19.663Z,11.90
2022-10-12T08:58:47.641Z,10.00
2022-10-12T09:01:38.296Z,7.28
2022-10-12T09:04:35.560Z,6.35
2022-10-12T09:07:32.034Z,4.72
2022-10-12T09:10:20.926Z,6.05
2022-10-12T09:13:05.981Z,8.82
2022-10-12T09:15:38.937Z,8.68
2022-10-12T09:18:15.818Z,11.93
2022-10-12T09:20:47.367Z,9.63
2022-10-12T09:23:26.357Z,9.98
2022-10-12T09:25:57.328Z,11.15
2022-10-12T09:28:35.244Z,14.32
2022-10-12T09:31:23.806Z,9.32
2022-10-12T09:33:56.494Z,11.45
2022-10-12T09:36:25.403Z,10.90
2022-10-12T09:38:52.336Z,8.23
2022-10-12T09:41:32.927Z,8.73
2022-10-12T09:44:01.131Z,9.75
2022-10-12T09:47:02.415Z,6.70
2022-10-12T09:49:41.703Z,9.30
2022-10-12T09:52:08.886Z,10.57
2022-10-12T09:54:35.355Z,11.60
2022-10-12T09:57:02.828Z,9.05
2022-10-12T09:59:39.585Z,8.00
2022-10-12T10:02:21.229Z,8.45
2022-10-12T10:04:49.138Z,11.50
2022-10-12T10:07:24.742Z,30.77
2022-10-12T10:10:14.873Z,9.30
2022-10-12T10:13:03.610Z,9.18
2022-10-12T10:15:35.159Z,10.18
2022-10-12T10:18:07.272Z,7.65
2022-10-12T10:20:34.431Z,10.65
2022-10-12T10:23:02.939Z,10.40
2022-10-12T10:25:29.462Z,11.77
2022-10-12T10:28:22.398Z,8.70
2022-10-12T10:31:15.870Z,14.32
2022-10-12T10:33:42.978Z,10.57
2022-10-12T10:36:23.392Z,11.18
2022-10-12T10:39:07.036Z,11.18
2022-10-12T10:41:39.408Z,9.20
2022-10-12T10:44:20.971Z,12.30
2022-10-12T10:46:48.180Z,10.00
2022-10-12T10:49:28.383Z,11.82
2022-10-12T10:51:57.775Z,12.38
2022-10-12T10:54:24.041Z,13.48
2022-10-12T10:56:52.396Z,9.63
2022-10-12T10:59:28.841Z,9.50
2022-10-12T11:02:02.417Z,11.95
2022-10-12T11:04:41.879Z,12.80
2022-10-12T11:07:24.243Z,11.52
2022-10-12T11:09:55.037Z,9.40
2022-10-12T11:12:30.331Z,11.73
2022-10-12T11:15:05.168Z,10.50
2022-10-12T11:17:34.942Z,12.02
2022-10-12T11:20:19.899Z,10.57
2022-10-12T11:22:50.122Z,11.57
2022-10-12T11:25:38.796Z,9.35
2022-10-12T11:28:06.710Z,7.72
2022-10-12T11:30:38.986Z,10.40
2022-10-12T11:33:38.881Z,12.23
2022-10-12T11:36:11.963Z,13.45
2022-10-12T11:38:42.196Z,12.45
2022-10-12T11:41:34.361Z,13.13
2022-10-12T11:44:50.157Z,12.38
2022-10-12T11:47:32.072Z,13.38
2022-10-12T11:50:36.495Z,11.57
2022-10-12T11:53:06.576Z,9.47
2022-10-12T11:56:06.608Z,9.25
2022-10-12T11:58:59.381Z,13.65
2022-10-12T12:02:04.556Z,14.77
2022-10-12T12:04:42.076Z,8.98
2022-10-12T12:07:44.554Z,13.52
2022-10-12T12:10:26.314Z,13.00
2022-10-12T12:13:11.331Z,16.98
2022-10-12T12:15:47.280Z,16.90
2022-10-12T12:18:23.718Z,10.57
2022-10-12T12:20:49.998Z,9.13
2022-10-12T12:23:34.668Z,14.77
2022-10-12T12:26:21.269Z,8.63
2022-10-12T12:29:11.812Z,13.25
2022-10-12T12:31:38.304Z,13.70
2022-10-12T12:34:14.033Z,10.63
2022-10-12T12:36:44.743Z,12.07
2022-10-12T12:39:26.435Z,11.45
2022-10-12T12:42:00.563Z,10.98
2022-10-12T12:44:34.015Z,10.77
2022-10-12T12:47:00.407Z,8.93
2022-10-12T12:49:34.416Z,9.57
2022-10-12T12:52:02.786Z,11.20
2022-10-12T12:54:29.622Z,7.22
2022-10-12T12:57:14.090Z,10.63
2022-10-12T13:00:12.880Z,8.70
2022-10-12T13:03:18.940Z,9.80
2022-10-12T13:06:05.374Z,11.35
2022-10-12T13:09:00.602Z,11.90
2022-10-12T13:11:49.666Z,10.88
2022-10-12T13:14:53.726Z,16.50
2022-10-12T13:17:39.327Z,12.90
2022-10-12T13:20:20.659Z,12.18
2022-10-12T13:22:48.282Z,15.70
2022-10-12T13:25:26.303Z,11.27
2022-10-12T13:27:53.364Z,11.07
2022-10-12T13:30:36.211Z,10.95
2022-10-12T13:33:11.448Z,15.15
2022-10-12T13:35:54.874Z,10.90
2022-10-12T13:38:26.970Z,12.07
2022-10-12T13:41:11.937Z,16.35
2022-10-12T13:43:44.062Z,13.45
2022-10-12T13:46:32.829Z,13.05
2022-10-12T13:49:00.255Z,14.15
2022-10-12T13:51:28.811Z,11.30
2022-10-12T13:53:55.232Z,8.88
2022-10-12T13:56:25.364Z,9.63
2022-10-12T13:59:00.675Z,9.73
2022-10-12T14:01:27.453Z,11.57
2022-10-12T14:04:02.723Z,10.63
2022-10-12T14:06:31.615Z,13.10
2022-10-12T14:09:06.618Z,12.20
2022-10-12T14:11:33.627Z,12.60
2022-10-12T14:14:00.098Z,15.85
2022-10-12T14:16:26.465Z,17.80
2022-10-12T14:18:52.846Z,13.57
2022-10-12T14:21:32.176Z,12.60
2022-10-12T14:24:09.495Z,20.25
2022-10-12T14:26:41.971Z,14.03
2022-10-12T14:29:32.003Z,13.02
2022-10-12T14:32:00.694Z,10.45
2022-10-12T14:34:26.894Z,15.18
2022-10-12T14:37:21.033Z,15.15
2022-10-12T14:39:48.983Z,15.40
2022-10-12T14:42:28.535Z,10.93
2022-10-12T14:44:55.127Z,15.25
2022-10-12T14:47:25.330Z,14.55
2022-10-12T14:49:53.493Z,12.93
2022-10-12T14:52:36.305Z,11.00
2022-10-12T14:55:02.720Z,19.10
2022-10-12T14:57:30.365Z,11.18
2022-10-12T14:59:57.163Z,14.50
2022-10-12T15:02:26.092Z,13.25
2022-10-12T15:04:52.922Z,16.63
2022-10-12T15:07:24.628Z,14.23
2022-10-12T15:09:51.058Z,14.43
2022-10-12T15:12:19.954Z,12.75
2022-10-12T15:14:46.791Z,10.32
2022-10-12T15:17:14.699Z,15.13
2022-10-12T15:19:42.186Z,18.85
2022-10-12T15:22:20.008Z,12.93
2022-10-12T15:24:46.753Z,13.07
2022-10-12T15:27:13.820Z,13.70
2022-10-12T15:29:40.528Z,13.25
2022-10-12T15:32:07.526Z,14.65
2022-10-12T15:34:33.913Z,15.52
2022-10-12T15:37:00.269Z,12.35
2022-10-12T15:39:26.602Z,14.02
2022-10-12T15:41:53.204Z,14.88
2022-10-12T15:44:19.524Z,15.68
2022-10-12T15:46:50.038Z,12.93
2022-10-12T15:49:19.789Z,16.42
2022-10-12T15:51:48.506Z,14.23
2022-10-12T15:54:14.842Z,18.73
2022-10-12T15:56:41.182Z,10.82
2022-10-12T15:59:07.747Z,15.10
2022-10-12T16:01:35.441Z,12.95
2022-10-12T16:04:03.008Z,15.93
2022-10-12T16:06:29.622Z,12.13
2022-10-12T16:08:55.964Z,15.05
2022-10-12T16:11:22.411Z,15.18
2022-10-12T16:13:55.435Z,12.88
2022-10-12T16:16:23.050Z,11.65
2022-10-12T16:18:49.359Z,12.80
2022-10-12T16:21:15.818Z,11.88
2022-10-12T16:23:42.234Z,11.82
2022-10-12T16:26:12.252Z,14.07
2022-10-12T16:28:38.735Z,9.00
2022-10-12T16:31:10.202Z,13.55
2022-10-12T16:33:36.563Z,13.52
2022-10-12T16:36:08.431Z,10.20
2022-10-12T16:38:34.738Z,10.23
2022-10-12T16:41:01.060Z,8.60
2022-10-12T16:43:27.392Z,7.80
2022-10-12T16:45:56.675Z,7.40
2022-10-12T16:48:23.040Z,11.88
2022-10-12T16:50:49.380Z,9.00
2022-10-12T16:53:15.683Z,7.63
2022-10-12T16:55:42.027Z,10.50
2022-10-12T16:58:08.416Z,9.52
2022-10-12T17:00:34.829Z,7.88
2022-10-12T17:03:01.270Z,8.52
2022-10-12T17:05:27.626Z,9.15
2022-10-12T17:07:53.958Z,9.85
2022-10-12T17:10:20.315Z,9.88
2022-10-12T17:12:46.778Z,7.90
2022-10-12T17:15:13.151Z,7.47
2022-10-12T17:17:39.611Z,7.25
2022-10-12T17:20:06.736Z,7.60
2022-10-12T17:22:33.102Z,11.80
2022-10-12T17:24:59.456Z,8.95
2022-10-12T17:27:30.020Z,10.10
2022-10-12T17:29:59.398Z,6.85
2022-10-12T17:32:26.421Z,5.93
2022-10-12T17:34:52.760Z,8.35
2022-10-12T17:37:19.399Z,8.52
2022-10-12T17:39:48.511Z,9.73
2022-10-12T17:42:15.197Z,8.45
2022-10-12T17:44:41.789Z,10.07
2022-10-12T17:47:08.155Z,8.60
2022-10-12T17:49:34.536Z,10.13
2022-10-12T17:52:00.870Z,7.47
2022-10-12T17:54:27.303Z,9.43
2022-10-12T17:56:55.304Z,8.30
2022-10-12T17:59:22.034Z,11.00
2022-10-12T18:01:49.007Z,12.85
2022-10-12T18:04:15.546Z,8.48
2022-10-12T18:06:41.982Z,8.27
2022-10-12T18:09:08.978Z,9.88
2022-10-12T18:11:36.172Z,9.07
2022-10-12T18:14:02.656Z,10.93
2022-10-12T18:16:33.609Z,13.07
2022-10-12T18:19:01.706Z,11.57
2022-10-12T18:21:30.099Z,11.30
2022-10-12T18:23:56.771Z,8.82
2022-10-12T18:26:23.335Z,10.70
2022-10-12T18:28:50.938Z,11.52
2022-10-12T18:31:22.092Z,11.48
2022-10-12T18:33:48.809Z,9.43
2022-10-12T18:36:16.286Z,9.68
2022-10-12T18:38:42.752Z,7.88
2022-10-12T18:41:11.838Z,14.02
2022-10-12T18:43:38.682Z,9.70
2022-10-12T18:46:06.766Z,9.90
2022-10-12T18:48:33.266Z,12.02
2022-10-12T18:51:07.359Z,10.98
2022-10-12T18:53:34.624Z,10.20
2022-10-12T18:56:03.245Z,7.28
2022-10-12T18:58:29.682Z,12.98
2022-10-12T19:00:56.058Z,12.02
2022-10-12T19:03:22.646Z,13.10
2022-10-12T19:05:49.020Z,17.40
2022-10-12T19:08:15.347Z,9.23
2022-10-12T19:10:41.753Z,12.60
2022-10-12T19:13:08.324Z,11.65
2022-10-12T19:15:38.044Z,8.98
2022-10-12T19:18:05.044Z,9.05
2022-10-12T19:20:32.602Z,10.07
2022-10-12T19:22:59.020Z,19.52
2022-10-12T19:25:25.399Z,9.88
2022-10-12T19:27:51.779Z,12.20
2022-10-12T19:30:18.119Z,11.13
2022-10-12T19:32:46.767Z,10.10
2022-10-12T19:35:13.315Z,12.15
2022-10-12T19:37:39.799Z,8.95
2022-10-12T19:40:07.799Z,14.13
2022-10-12T19:42:35.588Z,17.02
2022-10-12T19:45:03.090Z,16.55
2022-10-12T19:47:29.495Z,13.98
2022-10-12T19:49:55.918Z,15.05
2022-10-12T19:52:22.332Z,14.77
2022-10-12T19:54:48.719Z,15.63
2022-10-12T19:57:15.049Z,12.55
2022-10-12T19:59:41.363Z,13.15
2022-10-12T20:02:09.936Z,12.30
2022-10-12T20:04:36.798Z,12.20
2022-10-12T20:07:03.595Z,9.75
2022-10-12T20:09:30.717Z,9.32
2022-10-12T20:11:57.043Z,16.05
2022-10-12T20:14:23.502Z,11.50
2022-10-12T20:16:49.872Z,17.05
2022-10-12T20:19:16.227Z,12.63
2022-10-12T20:21:42.570Z,10.02
2022-10-12T20:24:09.676Z,11.73
2022-10-12T20:26:36.013Z,13.85
2022-10-12T20:29:02.333Z,11.82
2022-10-12T20:31:29.293Z,13.00
2022-10-12T20:33:57.673Z,10.00
2022-10-12T20:36:27.142Z,13.35
2022-10-12T20:38:53.879Z,13.88
2022-10-12T20:41:21.683Z,12.65
2022-10-12T20:43:48.110Z,13.50
2022-10-12T20:46:16.749Z,13.40
2022-10-12T20:48:44.484Z,14.82
2022-10-12T20:51:17.787Z,15.05
2022-10-12T20:53:44.145Z,12.38
2022-10-12T20:56:11.147Z,13.25
2022-10-12T20:58:37.668Z,16.38
2022-10-12T21:01:08.075Z,22.10
2022-10-12T21:03:34.992Z,22.25
2022-10-12T21:06:06.079Z,16.63
2022-10-12T21:08:32.930Z,14.05
2022-10-12T21:11:00.012Z,13.48
2022-10-12T21:13:29.754Z,15.50
2022-10-12T21:15:56.086Z,13.45
2022-10-12T21:18:22.494Z,14.10
2022-10-12T21:21:02.303Z,12.77
2022-10-12T21:23:28.639Z,16.80
2022-10-12T21:25:55.069Z,13.70
2022-10-12T21:28:22.846Z,12.07
2022-10-12T21:30:49.858Z,13.88
2022-10-12T21:33:17.723Z,10.98
2022-10-12T21:35:44.066Z,11.18
2022-10-12T21:38:10.411Z,11.52
2022-10-12T21:40:36.786Z,12.15
2022-10-12T21:43:03.172Z,12.40
2022-10-12T21:45:29.491Z,11.60
2022-10-12T21:47:55.827Z,10.40
2022-10-12T21:50:22.147Z,10.77
2022-10-12T21:52:50.169Z,12.68
2022-10-12T21:55:16.645Z,16.17
2022-10-12T21:57:42.994Z,13.65
2022-10-12T22:00:09.965Z,10.10
2022-10-12T22:02:36.312Z,10.27
2022-10-12T22:05:02.682Z,11.23
2022-10-12T22:07:28.990Z,12.50
2022-10-12T22:09:55.339Z,11.23
2022-10-12T22:12:21.666Z,11.65
2022-10-12T22:14:47.985Z,14.07
2022-10-12T22:17:14.299Z,16.52
2022-10-12T22:19:40.894Z,14.65
2022-10-12T22:22:07.232Z,11.63
2022-10-12T22:24:33.570Z,11.63
2022-10-12T22:26:59.890Z,15.55
2022-10-12T22:29:26.262Z,15.23
2022-10-12T22:31:52.603Z,19.00
2022-10-12T22:34:18.951Z,13.40
2022-10-12T22:36:45.268Z,15.02
2022-10-12T22:39:11.586Z,13.50
2022-10-12T22:41:37.923Z,14.60
2022-10-12T22:44:04.347Z,10.38
2022-10-12T22:46:30.898Z,11.15
2022-10-12T22:48:57.545Z,10.57
2022-10-12T22:51:39.214Z,11.95
2022-10-12T22:54:05.752Z,10.95
2022-10-12T22:56:32.365Z,11.60
2022-10-12T22:59:01.507Z,12.00
2022-10-12T23:01:28.325Z,10.90
2022-10-12T23:03:55.022Z,13.85
2022-10-12T23:06:21.767Z,8.38
2022-10-12T23:08:48.118Z,10.05
2022-10-12T23:11:17.300Z,9.40
2022-10-12T23:13:44.295Z,15.73
2022-10-12T23:16:12.927Z,10.90
2022-10-12T23:18:39.562Z,13.88
2022-10-12T23:21:07.601Z,12.18
2022-10-12T23:23:34.911Z,10.48
2022-10-12T23:26:03.679Z,9.57
2022-10-12T23:28:30.137Z,12.95
2022-10-12T23:30:56.494Z,12.65
2022-10-12T23:33:22.907Z,13.18
2022-10-12T23:35:59.974Z,12.48
2022-10-12T23:38:28.594Z,10.63
2022-10-12T23:40:55.186Z,12.23
2022-10-12T23:43:21.843Z,10.95
2022-10-12T23:45:48.230Z,14.95
2022-10-12T23:48:14.778Z,13.30
2022-10-12T23:50:41.610Z,14.07
2022-10-12T23:53:09.294Z,11.88
2022-10-12T23:55:37.949Z,12.73
2022-10-12T23:58:04.384Z,9.70
